CheckWX is a tool to help pilots better visualize weather data.  It is not intended as a substitute for an official pre-flight weather briefing.

14:32:51 UTC

EGGD METAR
Bristol International Airport
Bristol, United Kingdom
Current

43 mins ago

EGGD 161350Z AUTO 26006KT 170V340 9999 BKN045 24/12 Q1019
Observed
Jul-16 @ 13:50 UTC
Wind
  • 260° at 6 KTS
Visibility
10,000+ meters
Flight Rules
VFR
Cloud Levels
  • Broken at 4,500' AGL
Temperature
24°C / 75°F
Dewpoint
12°C / 54°F
Humidity
47%
Altimeter
30.09" Hg
Pressure
1018.92 hPa
Previous

1 hour ago

EGGD 161320Z AUTO 22007KT 170V280 9999 SCT046 23/12 Q1019
Observed
Jul-16 @ 13:20 UTC
Wind
  • 220° at 7 KTS
Visibility
10,000+ meters
Flight Rules
VFR
Cloud Levels
  • Scattered at 4,600' AGL
Temperature
23°C / 73°F
Dewpoint
12°C / 54°F
Humidity
50%
Altimeter
30.09" Hg
Pressure
1018.92 hPa
Previous

2 hours ago

EGGD 161250Z AUTO 16005KT 120V190 9999 SCT042 22/11 Q1019
Observed
Jul-16 @ 12:50 UTC
Wind
  • 160° at 5 KTS
Visibility
10,000+ meters
Flight Rules
VFR
Cloud Levels
  • Scattered at 4,200' AGL
Temperature
22°C / 72°F
Dewpoint
11°C / 52°F
Humidity
50%
Altimeter
30.09" Hg
Pressure
1018.92 hPa